sensor_id;sensor_type;location;lat;lon;timestamp;temperature;humidity
11454;DHT22;5783;55.174;61.310;2023-01-29T00:01:08;14.40;31.30
11454;DHT22;5783;55.174;61.310;2023-01-29T00:03:37;14.40;31.40
11454;DHT22;5783;55.174;61.310;2023-01-29T00:06:09;14.30;31.30
11454;DHT22;5783;55.174;61.310;2023-01-29T00:08:38;14.40;31.10
11454;DHT22;5783;55.174;61.310;2023-01-29T00:11:09;14.40;31.00
11454;DHT22;5783;55.174;61.310;2023-01-29T00:13:38;14.40;31.00
11454;DHT22;5783;55.174;61.310;2023-01-29T00:16:07;14.50;30.90
11454;DHT22;5783;55.174;61.310;2023-01-29T00:18:56;14.50;30.70
11454;DHT22;5783;55.174;61.310;2023-01-29T00:21:25;14.50;30.90
11454;DHT22;5783;55.174;61.310;2023-01-29T00:23:56;14.40;30.90
11454;DHT22;5783;55.174;61.310;2023-01-29T00:26:27;14.40;30.90
11454;DHT22;5783;55.174;61.310;2023-01-29T00:28:56;14.40;30.90
11454;DHT22;5783;55.174;61.310;2023-01-29T00:31:27;14.50;30.90
11454;DHT22;5783;55.174;61.310;2023-01-29T00:33:57;14.60;30.70
11454;DHT22;5783;55.174;61.310;2023-01-29T00:36:26;14.60;30.60
11454;DHT22;5783;55.174;61.310;2023-01-29T00:38:57;14.60;30.70
11454;DHT22;5783;55.174;61.310;2023-01-29T00:41:30;14.60;30.60
11454;DHT22;5783;55.174;61.310;2023-01-29T00:44:49;14.70;30.50
11454;DHT22;5783;55.174;61.310;2023-01-29T00:47:10;14.70;30.70
11454;DHT22;5783;55.174;61.310;2023-01-29T00:50:18;14.60;30.60
11454;DHT22;5783;55.174;61.310;2023-01-29T00:52:47;14.60;30.80
11454;DHT22;5783;55.174;61.310;2023-01-29T00:55:18;14.60;30.80
11454;DHT22;5783;55.174;61.310;2023-01-29T00:57:48;14.50;30.80
11454;DHT22;5783;55.174;61.310;2023-01-29T01:00:18;14.50;30.90
11454;DHT22;5783;55.174;61.310;2023-01-29T01:02:47;14.50;31.10
11454;DHT22;5783;55.174;61.310;2023-01-29T01:05:36;14.40;31.10
11454;DHT22;5783;55.174;61.310;2023-01-29T01:08:07;14.40;31.20
11454;DHT22;5783;55.174;61.310;2023-01-29T01:11:16;14.40;31.10
11454;DHT22;5783;55.174;61.310;2023-01-29T01:13:45;14.40;31.10
11454;DHT22;5783;55.174;61.310;2023-01-29T01:16:16;14.40;31.10
11454;DHT22;5783;55.174;61.310;2023-01-29T01:18:46;14.40;31.30
11454;DHT22;5783;55.174;61.310;2023-01-29T01:21:15;14.40;31.30
11454;DHT22;5783;55.174;61.310;2023-01-29T01:23:44;14.40;31.20
11454;DHT22;5783;55.174;61.310;2023-01-29T01:26:13;14.50;30.90
11454;DHT22;5783;55.174;61.310;2023-01-29T01:28:43;14.50;30.90
11454;DHT22;5783;55.174;61.310;2023-01-29T01:31:13;14.40;30.90
11454;DHT22;5783;55.174;61.310;2023-01-29T01:34:17;14.40;31.00
11454;DHT22;5783;55.174;61.310;2023-01-29T01:36:13;14.30;31.00
11454;DHT22;5783;55.174;61.310;2023-01-29T01:38:42;14.30;31.20
11454;DHT22;5783;55.174;61.310;2023-01-29T01:44:02;14.30;31.20
11454;DHT22;5783;55.174;61.310;2023-01-29T01:46:35;14.30;31.10
11454;DHT22;5783;55.174;61.310;2023-01-29T01:49:23;14.30;31.10
11454;DHT22;5783;55.174;61.310;2023-01-29T01:51:53;14.30;31.00
11454;DHT22;5783;55.174;61.310;2023-01-29T01:54:24;14.40;31.10
11454;DHT22;5783;55.174;61.310;2023-01-29T01:59:49;14.40;30.80
11454;DHT22;5783;55.174;61.310;2023-01-29T02:02:19;14.50;30.70
11454;DHT22;5783;55.174;61.310;2023-01-29T02:05:09;14.40;30.70
11454;DHT22;5783;55.174;61.310;2023-01-29T02:07:59;14.40;31.00
11454;DHT22;5783;55.174;61.310;2023-01-29T02:10:48;14.30;30.80
11454;DHT22;5783;55.174;61.310;2023-01-29T02:13:17;14.30;31.00
11454;DHT22;5783;55.174;61.310;2023-01-29T02:15:47;14.20;31.10
11454;DHT22;5783;55.174;61.310;2023-01-29T02:18:19;14.20;31.30
11454;DHT22;5783;55.174;61.310;2023-01-29T02:38:49;14.10;31.50
11454;DHT22;5783;55.174;61.310;2023-01-29T02:44:46;14.10;31.40
11454;DHT22;5783;55.174;61.310;2023-01-29T02:50:30;14.20;31.00
11454;DHT22;5783;55.174;61.310;2023-01-29T02:53:20;14.20;31.60
11454;DHT22;5783;55.174;61.310;2023-01-29T02:56:10;14.30;31.00
11454;DHT22;5783;55.174;61.310;2023-01-29T02:59:01;14.20;31.00
11454;DHT22;5783;55.174;61.310;2023-01-29T03:02:22;14.20;30.90
11454;DHT22;5783;55.174;61.310;2023-01-29T03:04:23;14.20;31.00
11454;DHT22;5783;55.174;61.310;2023-01-29T03:06:55;14.30;31.00
11454;DHT22;5783;55.174;61.310;2023-01-29T03:09:45;14.30;30.80
11454;DHT22;5783;55.174;61.310;2023-01-29T03:12:34;14.30;30.70
11454;DHT22;5783;55.174;61.310;2023-01-29T03:15:39;14.30;30.70
11454;DHT22;5783;55.174;61.310;2023-01-29T03:20:14;14.20;30.90
11454;DHT22;5783;55.174;61.310;2023-01-29T03:22:44;14.20;31.20
11454;DHT22;5783;55.174;61.310;2023-01-29T03:25:18;14.20;31.00
11454;DHT22;5783;55.174;61.310;2023-01-29T03:28:09;14.20;31.10
11454;DHT22;5783;55.174;61.310;2023-01-29T03:31:19;14.20;31.30
11454;DHT22;5783;55.174;61.310;2023-01-29T03:39:33;14.30;31.10
11454;DHT22;5783;55.174;61.310;2023-01-29T03:48:05;14.20;31.00
11454;DHT22;5783;55.174;61.310;2023-01-29T03:50:37;14.20;31.00
11454;DHT22;5783;55.174;61.310;2023-01-29T04:04:48;14.20;31.20
11454;DHT22;5783;55.174;61.310;2023-01-29T04:07:21;14.20;31.10
11454;DHT22;5783;55.174;61.310;2023-01-29T04:10:12;14.20;31.10
11454;DHT22;5783;55.174;61.310;2023-01-29T04:15:33;14.30;31.10
11454;DHT22;5783;55.174;61.310;2023-01-29T04:18:03;14.30;30.90
11454;DHT22;5783;55.174;61.310;2023-01-29T04:20:33;14.30;30.70
11454;DHT22;5783;55.174;61.310;2023-01-29T04:23:05;14.40;30.80
11454;DHT22;5783;55.174;61.310;2023-01-29T04:37:00;14.30;30.90
11454;DHT22;5783;55.174;61.310;2023-01-29T05:01:12;16.00;26.80
11454;DHT22;5783;55.174;61.310;2023-01-29T05:03:44;16.00;27.20
11454;DHT22;5783;55.174;61.310;2023-01-29T05:06:14;16.10;26.50
11454;DHT22;5783;55.174;61.310;2023-01-29T05:11:17;16.00;26.30
11454;DHT22;5783;55.174;61.310;2023-01-29T05:13:48;15.90;26.40
11454;DHT22;5783;55.174;61.310;2023-01-29T05:16:39;15.80;26.50
11454;DHT22;5783;55.174;61.310;2023-01-29T05:19:10;15.80;26.70
11454;DHT22;5783;55.174;61.310;2023-01-29T05:24:30;15.80;26.30
11454;DHT22;5783;55.174;61.310;2023-01-29T05:27:00;15.90;26.30
11454;DHT22;5783;55.174;61.310;2023-01-29T05:29:48;15.90;26.20
11454;DHT22;5783;55.174;61.310;2023-01-29T05:32:17;15.80;26.70
11454;DHT22;5783;55.174;61.310;2023-01-29T05:34:46;15.90;26.40
11454;DHT22;5783;55.174;61.310;2023-01-29T05:37:16;15.80;26.30
11454;DHT22;5783;55.174;61.310;2023-01-29T05:39:45;15.80;26.20
11454;DHT22;5783;55.174;61.310;2023-01-29T05:42:14;15.80;26.20
11454;DHT22;5783;55.174;61.310;2023-01-29T05:44:43;15.70;26.30
11454;DHT22;5783;55.174;61.310;2023-01-29T05:47:12;15.70;26.20
11454;DHT22;5783;55.174;61.310;2023-01-29T05:49:41;15.70;26.40
11454;DHT22;5783;55.174;61.310;2023-01-29T05:52:10;15.80;26.50
11454;DHT22;5783;55.174;61.310;2023-01-29T05:54:40;16.00;26.40
11454;DHT22;5783;55.174;61.310;2023-01-29T05:57:09;16.00;26.30
11454;DHT22;5783;55.174;61.310;2023-01-29T05:59:38;16.00;26.30
11454;DHT22;5783;55.174;61.310;2023-01-29T06:02:07;16.10;26.30
11454;DHT22;5783;55.174;61.310;2023-01-29T06:04:36;16.20;26.20
11454;DHT22;5783;55.174;61.310;2023-01-29T06:07:05;16.30;26.60
11454;DHT22;5783;55.174;61.310;2023-01-29T06:09:35;16.30;26.60
11454;DHT22;5783;55.174;61.310;2023-01-29T06:12:05;16.30;27.10
11454;DHT22;5783;55.174;61.310;2023-01-29T06:14:34;16.20;26.70
11454;DHT22;5783;55.174;61.310;2023-01-29T06:17:03;16.20;26.60
11454;DHT22;5783;55.174;61.310;2023-01-29T06:19:32;16.20;26.40
11454;DHT22;5783;55.174;61.310;2023-01-29T06:22:01;16.30;26.40
11454;DHT22;5783;55.174;61.310;2023-01-29T06:24:30;16.20;26.10
11454;DHT22;5783;55.174;61.310;2023-01-29T06:27:00;16.20;26.20
11454;DHT22;5783;55.174;61.310;2023-01-29T06:29:29;16.30;26.20
11454;DHT22;5783;55.174;61.310;2023-01-29T06:31:58;16.40;26.50
11454;DHT22;5783;55.174;61.310;2023-01-29T06:34:27;16.40;26.30
11454;DHT22;5783;55.174;61.310;2023-01-29T06:36:56;16.30;26.30
11454;DHT22;5783;55.174;61.310;2023-01-29T06:39:25;16.30;26.10
11454;DHT22;5783;55.174;61.310;2023-01-29T06:41:54;16.20;26.60
11454;DHT22;5783;55.174;61.310;2023-01-29T06:44:24;16.30;26.90
11454;DHT22;5783;55.174;61.310;2023-01-29T06:46:53;16.20;26.70
11454;DHT22;5783;55.174;61.310;2023-01-29T06:49:22;16.10;26.80
11454;DHT22;5783;55.174;61.310;2023-01-29T06:51:51;16.10;27.10
11454;DHT22;5783;55.174;61.310;2023-01-29T06:54:20;16.10;27.20
11454;DHT22;5783;55.174;61.310;2023-01-29T06:56:50;16.20;27.20
11454;DHT22;5783;55.174;61.310;2023-01-29T06:59:19;16.20;26.80
11454;DHT22;5783;55.174;61.310;2023-01-29T07:01:50;16.20;26.60
11454;DHT22;5783;55.174;61.310;2023-01-29T07:04:19;16.20;26.60
11454;DHT22;5783;55.174;61.310;2023-01-29T07:06:48;16.10;27.00
11454;DHT22;5783;55.174;61.310;2023-01-29T07:09:17;16.10;27.10
11454;DHT22;5783;55.174;61.310;2023-01-29T07:11:47;16.10;27.00
11454;DHT22;5783;55.174;61.310;2023-01-29T07:14:17;16.10;27.00
11454;DHT22;5783;55.174;61.310;2023-01-29T07:16:47;16.10;27.30
11454;DHT22;5783;55.174;61.310;2023-01-29T07:19:16;16.20;27.90
11454;DHT22;5783;55.174;61.310;2023-01-29T07:21:45;16.30;27.90
11454;DHT22;5783;55.174;61.310;2023-01-29T07:24:15;16.40;27.10
11454;DHT22;5783;55.174;61.310;2023-01-29T07:26:44;16.40;26.60
11454;DHT22;5783;55.174;61.310;2023-01-29T07:29:14;16.30;26.50
11454;DHT22;5783;55.174;61.310;2023-01-29T07:31:43;16.30;26.60
11454;DHT22;5783;55.174;61.310;2023-01-29T07:34:12;16.20;26.60
11454;DHT22;5783;55.174;61.310;2023-01-29T07:36:41;16.10;26.80
11454;DHT22;5783;55.174;61.310;2023-01-29T07:39:10;16.00;26.90
11454;DHT22;5783;55.174;61.310;2023-01-29T07:41:39;15.90;27.30
11454;DHT22;5783;55.174;61.310;2023-01-29T07:44:09;16.10;27.40
11454;DHT22;5783;55.174;61.310;2023-01-29T07:46:38;16.30;27.00
11454;DHT22;5783;55.174;61.310;2023-01-29T07:49:09;16.40;26.60
11454;DHT22;5783;55.174;61.310;2023-01-29T07:51:40;16.50;26.40
11454;DHT22;5783;55.174;61.310;2023-01-29T07:54:09;16.50;26.20
11454;DHT22;5783;55.174;61.310;2023-01-29T07:56:38;16.50;26.20
11454;DHT22;5783;55.174;61.310;2023-01-29T07:59:07;16.60;25.90
11454;DHT22;5783;55.174;61.310;2023-01-29T08:01:36;16.60;25.80
11454;DHT22;5783;55.174;61.310;2023-01-29T08:04:05;16.50;25.80
11454;DHT22;5783;55.174;61.310;2023-01-29T08:06:34;16.50;26.00
11454;DHT22;5783;55.174;61.310;2023-01-29T08:09:04;16.30;26.00
11454;DHT22;5783;55.174;61.310;2023-01-29T08:11:34;16.30;26.80
11454;DHT22;5783;55.174;61.310;2023-01-29T08:14:03;16.40;26.70
11454;DHT22;5783;55.174;61.310;2023-01-29T08:16:34;16.60;26.60
11454;DHT22;5783;55.174;61.310;2023-01-29T08:19:04;16.60;26.20
11454;DHT22;5783;55.174;61.310;2023-01-29T08:21:33;16.50;25.90
11454;DHT22;5783;55.174;61.310;2023-01-29T08:24:02;16.40;26.10
11454;DHT22;5783;55.174;61.310;2023-01-29T08:26:31;16.30;26.20
11454;DHT22;5783;55.174;61.310;2023-01-29T08:29:00;16.30;26.30
11454;DHT22;5783;55.174;61.310;2023-01-29T08:31:29;16.30;26.30
11454;DHT22;5783;55.174;61.310;2023-01-29T08:33:59;16.50;26.20
11454;DHT22;5783;55.174;61.310;2023-01-29T08:36:28;16.50;25.80
11454;DHT22;5783;55.174;61.310;2023-01-29T08:38:57;16.40;26.00
11454;DHT22;5783;55.174;61.310;2023-01-29T08:41:26;16.40;25.80
11454;DHT22;5783;55.174;61.310;2023-01-29T08:43:56;16.40;25.80
11454;DHT22;5783;55.174;61.310;2023-01-29T08:46:26;16.40;25.90
11454;DHT22;5783;55.174;61.310;2023-01-29T08:48:56;16.40;25.70
11454;DHT22;5783;55.174;61.310;2023-01-29T08:51:25;16.30;25.80
11454;DHT22;5783;55.174;61.310;2023-01-29T08:53:54;16.30;25.70
11454;DHT22;5783;55.174;61.310;2023-01-29T08:56:24;16.20;25.70
11454;DHT22;5783;55.174;61.310;2023-01-29T08:58:53;16.10;25.60
11454;DHT22;5783;55.174;61.310;2023-01-29T09:01:23;16.00;25.90
11454;DHT22;5783;55.174;61.310;2023-01-29T09:03:52;16.00;25.80
11454;DHT22;5783;55.174;61.310;2023-01-29T09:06:23;15.90;25.90
11454;DHT22;5783;55.174;61.310;2023-01-29T09:08:52;15.80;26.00
11454;DHT22;5783;55.174;61.310;2023-01-29T09:11:23;15.90;26.30
11454;DHT22;5783;55.174;61.310;2023-01-29T09:13:52;16.00;25.80
11454;DHT22;5783;55.174;61.310;2023-01-29T09:16:21;16.00;26.10
11454;DHT22;5783;55.174;61.310;2023-01-29T09:18:52;16.00;26.10
11454;DHT22;5783;55.174;61.310;2023-01-29T09:23:52;16.20;25.90
11454;DHT22;5783;55.174;61.310;2023-01-29T09:26:21;16.30;26.00
11454;DHT22;5783;55.174;61.310;2023-01-29T09:28:50;16.40;25.90
11454;DHT22;5783;55.174;61.310;2023-01-29T09:31:21;16.50;25.80
11454;DHT22;5783;55.174;61.310;2023-01-29T09:33:50;16.50;25.30
11454;DHT22;5783;55.174;61.310;2023-01-29T09:36:39;16.40;25.70
11454;DHT22;5783;55.174;61.310;2023-01-29T09:39:10;16.50;25.70
11454;DHT22;5783;55.174;61.310;2023-01-29T09:47:59;16.10;25.60
11454;DHT22;5783;55.174;61.310;2023-01-29T09:56:13;16.00;26.20
11454;DHT22;5783;55.174;61.310;2023-01-29T09:58:43;16.00;26.10
11454;DHT22;5783;55.174;61.310;2023-01-29T10:04:44;16.40;26.10
11454;DHT22;5783;55.174;61.310;2023-01-29T10:08:10;16.60;26.00
11454;DHT22;5783;55.174;61.310;2023-01-29T10:10:38;16.60;25.40
11454;DHT22;5783;55.174;61.310;2023-01-29T10:27:43;16.00;26.00
11454;DHT22;5783;55.174;61.310;2023-01-29T10:30:33;16.10;26.20
11454;DHT22;5783;55.174;61.310;2023-01-29T10:33:05;16.20;25.90
11454;DHT22;5783;55.174;61.310;2023-01-29T10:35:56;16.30;26.00
11454;DHT22;5783;55.174;61.310;2023-01-29T10:53:37;17.00;25.20
11454;DHT22;5783;55.174;61.310;2023-01-29T11:02:20;17.20;25.20
11454;DHT22;5783;55.174;61.310;2023-01-29T11:04:49;17.30;25.00
11454;DHT22;5783;55.174;61.310;2023-01-29T11:07:19;17.20;24.50
11454;DHT22;5783;55.174;61.310;2023-01-29T11:12:41;17.10;24.70
11454;DHT22;5783;55.174;61.310;2023-01-29T11:15:30;16.90;24.50
11454;DHT22;5783;55.174;61.310;2023-01-29T11:18:20;16.70;25.20
11454;DHT22;5783;55.174;61.310;2023-01-29T11:23:40;16.70;25.30
11454;DHT22;5783;55.174;61.310;2023-01-29T11:26:11;16.80;25.30
11454;DHT22;5783;55.174;61.310;2023-01-29T11:28:43;16.90;25.30
11454;DHT22;5783;55.174;61.310;2023-01-29T11:32:06;16.90;24.80
11454;DHT22;5783;55.174;61.310;2023-01-29T11:34:12;16.80;25.10
11454;DHT22;5783;55.174;61.310;2023-01-29T11:36:37;16.80;25.10
11454;DHT22;5783;55.174;61.310;2023-01-29T11:39:27;16.90;25.10
11454;DHT22;5783;55.174;61.310;2023-01-29T11:41:59;17.00;25.10
11454;DHT22;5783;55.174;61.310;2023-01-29T11:44:49;17.10;24.90
11454;DHT22;5783;55.174;61.310;2023-01-29T11:47:38;17.20;24.80
11454;DHT22;5783;55.174;61.310;2023-01-29T11:52:40;17.20;24.60
11454;DHT22;5783;55.174;61.310;2023-01-29T11:55:31;17.20;24.60
11454;DHT22;5783;55.174;61.310;2023-01-29T12:03:44;17.20;24.60
11454;DHT22;5783;55.174;61.310;2023-01-29T12:06:51;17.30;24.60
11454;DHT22;5783;55.174;61.310;2023-01-29T12:11:37;17.40;24.50
11454;DHT22;5783;55.174;61.310;2023-01-29T12:14:21;17.40;24.40
11454;DHT22;5783;55.174;61.310;2023-01-29T12:26:06;17.60;25.00
11454;DHT22;5783;55.174;61.310;2023-01-29T12:32:04;17.70;25.40
11454;DHT22;5783;55.174;61.310;2023-01-29T12:40:18;17.70;25.30
11454;DHT22;5783;55.174;61.310;2023-01-29T12:42:51;17.70;25.40
11454;DHT22;5783;55.174;61.310;2023-01-29T12:45:23;17.70;25.30
11454;DHT22;5783;55.174;61.310;2023-01-29T12:48:13;17.70;25.30
11454;DHT22;5783;55.174;61.310;2023-01-29T12:50:43;17.70;25.00
11454;DHT22;5783;55.174;61.310;2023-01-29T12:53:34;17.70;25.00
11454;DHT22;5783;55.174;61.310;2023-01-29T12:56:07;17.70;25.40
11454;DHT22;5783;55.174;61.310;2023-01-29T12:58:55;17.70;25.40
11454;DHT22;5783;55.174;61.310;2023-01-29T13:01:29;17.70;25.00
11454;DHT22;5783;55.174;61.310;2023-01-29T13:10:18;17.60;25.20
11454;DHT22;5783;55.174;61.310;2023-01-29T13:15:57;17.50;25.20
11454;DHT22;5783;55.174;61.310;2023-01-29T13:18:49;17.40;25.10
11454;DHT22;5783;55.174;61.310;2023-01-29T13:21:38;17.40;24.70
11454;DHT22;5783;55.174;61.310;2023-01-29T13:27:00;17.20;25.20
11454;DHT22;5783;55.174;61.310;2023-01-29T13:29:30;17.10;26.10
11454;DHT22;5783;55.174;61.310;2023-01-29T13:32:01;17.00;26.00
11454;DHT22;5783;55.174;61.310;2023-01-29T13:34:51;16.90;26.00
11454;DHT22;5783;55.174;61.310;2023-01-29T13:37:46;16.80;26.00
11454;DHT22;5783;55.174;61.310;2023-01-29T13:43:03;16.80;26.10
11454;DHT22;5783;55.174;61.310;2023-01-29T13:45:52;16.70;26.00
11454;DHT22;5783;55.174;61.310;2023-01-29T13:48:42;16.70;25.80
11454;DHT22;5783;55.174;61.310;2023-01-29T13:51:15;16.60;25.70
11454;DHT22;5783;55.174;61.310;2023-01-29T13:54:06;16.60;25.70
11454;DHT22;5783;55.174;61.310;2023-01-29T14:02:34;16.50;26.40
11454;DHT22;5783;55.174;61.310;2023-01-29T14:10:44;16.60;25.30
11454;DHT22;5783;55.174;61.310;2023-01-29T14:13:33;16.60;25.10
11454;DHT22;5783;55.174;61.310;2023-01-29T14:18:36;16.50;25.20
11454;DHT22;5783;55.174;61.310;2023-01-29T14:27:13;16.40;26.30
11454;DHT22;5783;55.174;61.310;2023-01-29T14:29:37;16.40;25.60
11454;DHT22;5783;55.174;61.310;2023-01-29T14:35:19;16.50;25.20
11454;DHT22;5783;55.174;61.310;2023-01-29T14:37:52;16.40;25.20
11454;DHT22;5783;55.174;61.310;2023-01-29T14:40:23;16.40;25.70
11454;DHT22;5783;55.174;61.310;2023-01-29T14:43:15;16.40;25.80
11454;DHT22;5783;55.174;61.310;2023-01-29T14:45:47;16.40;25.30
11454;DHT22;5783;55.174;61.310;2023-01-29T14:48:34;16.40;25.60
11454;DHT22;5783;55.174;61.310;2023-01-29T14:50:51;16.40;25.30
11454;DHT22;5783;55.174;61.310;2023-01-29T15:02:49;16.60;25.40
11454;DHT22;5783;55.174;61.310;2023-01-29T15:11:24;16.80;27.00
11454;DHT22;5783;55.174;61.310;2023-01-29T15:20:31;17.00;27.40
11454;DHT22;5783;55.174;61.310;2023-01-29T15:23:02;17.00;27.60
11454;DHT22;5783;55.174;61.310;2023-01-29T15:25:53;17.10;27.50
11454;DHT22;5783;55.174;61.310;2023-01-29T15:28:22;17.10;27.40
11454;DHT22;5783;55.174;61.310;2023-01-29T15:30:54;17.10;27.40
11454;DHT22;5783;55.174;61.310;2023-01-29T15:33:25;17.10;27.30
11454;DHT22;5783;55.174;61.310;2023-01-29T15:35:57;17.10;27.20
11454;DHT22;5783;55.174;61.310;2023-01-29T15:38:27;17.10;27.20
11454;DHT22;5783;55.174;61.310;2023-01-29T15:43:50;17.20;27.30
11454;DHT22;5783;55.174;61.310;2023-01-29T15:46:39;17.20;27.30
11454;DHT22;5783;55.174;61.310;2023-01-29T15:49:14;17.20;27.30
11454;DHT22;5783;55.174;61.310;2023-01-29T15:51:42;17.20;27.30
11454;DHT22;5783;55.174;61.310;2023-01-29T15:54:15;17.20;27.40
11454;DHT22;5783;55.174;61.310;2023-01-29T15:57:04;17.20;27.40
11454;DHT22;5783;55.174;61.310;2023-01-29T15:59:36;17.20;27.40
11454;DHT22;5783;55.174;61.310;2023-01-29T16:05:16;17.20;27.30
11454;DHT22;5783;55.174;61.310;2023-01-29T16:07:48;17.20;27.40
11454;DHT22;5783;55.174;61.310;2023-01-29T16:10:20;17.20;27.30
11454;DHT22;5783;55.174;61.310;2023-01-29T16:12:51;17.30;27.20
11454;DHT22;5783;55.174;61.310;2023-01-29T16:15:40;17.30;27.20
11454;DHT22;5783;55.174;61.310;2023-01-29T16:21:39;17.30;26.90
11454;DHT22;5783;55.174;61.310;2023-01-29T16:24:12;17.30;26.90
11454;DHT22;5783;55.174;61.310;2023-01-29T16:29:52;17.30;26.80
11454;DHT22;5783;55.174;61.310;2023-01-29T16:32:21;17.20;26.80
11454;DHT22;5783;55.174;61.310;2023-01-29T16:34:54;17.20;26.80
11454;DHT22;5783;55.174;61.310;2023-01-29T16:37:25;17.20;26.90
11454;DHT22;5783;55.174;61.310;2023-01-29T16:39:55;17.30;26.80
11454;DHT22;5783;55.174;61.310;2023-01-29T16:42:45;17.30;26.90
11454;DHT22;5783;55.174;61.310;2023-01-29T16:45:33;17.30;26.90
11454;DHT22;5783;55.174;61.310;2023-01-29T16:56:34;17.30;27.00
11454;DHT22;5783;55.174;61.310;2023-01-29T16:59:06;17.30;26.90
11454;DHT22;5783;55.174;61.310;2023-01-29T17:01:36;17.30;26.90
11454;DHT22;5783;55.174;61.310;2023-01-29T17:04:25;17.30;26.90
11454;DHT22;5783;55.174;61.310;2023-01-29T17:06:58;17.30;26.90
11454;DHT22;5783;55.174;61.310;2023-01-29T17:12:35;17.30;26.90
11454;DHT22;5783;55.174;61.310;2023-01-29T17:17:55;17.30;26.90
11454;DHT22;5783;55.174;61.310;2023-01-29T17:20:24;17.30;26.90
11454;DHT22;5783;55.174;61.310;2023-01-29T17:22:53;17.30;27.10
11454;DHT22;5783;55.174;61.310;2023-01-29T17:25:22;17.30;27.00
11454;DHT22;5783;55.174;61.310;2023-01-29T17:27:51;17.40;26.90
11454;DHT22;5783;55.174;61.310;2023-01-29T17:30:22;17.30;27.00
11454;DHT22;5783;55.174;61.310;2023-01-29T17:32:53;17.40;26.90
11454;DHT22;5783;55.174;61.310;2023-01-29T17:35:22;17.40;26.40
11454;DHT22;5783;55.174;61.310;2023-01-29T17:37:51;17.40;26.80
11454;DHT22;5783;55.174;61.310;2023-01-29T17:43:29;17.40;26.80
11454;DHT22;5783;55.174;61.310;2023-01-29T17:45:58;17.30;26.70
11454;DHT22;5783;55.174;61.310;2023-01-29T17:48:29;17.30;26.80
11454;DHT22;5783;55.174;61.310;2023-01-29T17:51:00;17.40;26.80
11454;DHT22;5783;55.174;61.310;2023-01-29T17:53:30;17.40;26.70
11454;DHT22;5783;55.174;61.310;2023-01-29T17:56:00;17.50;26.70
11454;DHT22;5783;55.174;61.310;2023-01-29T17:58:29;17.50;26.70
11454;DHT22;5783;55.174;61.310;2023-01-29T18:00:58;17.50;26.10
11454;DHT22;5783;55.174;61.310;2023-01-29T18:03:27;17.50;26.60
11454;DHT22;5783;55.174;61.310;2023-01-29T18:05:56;17.50;26.60
11454;DHT22;5783;55.174;61.310;2023-01-29T18:08:28;17.50;26.80
11454;DHT22;5783;55.174;61.310;2023-01-29T18:10:58;17.60;26.60
11454;DHT22;5783;55.174;61.310;2023-01-29T18:13:28;17.50;26.50
11454;DHT22;5783;55.174;61.310;2023-01-29T18:15:57;17.50;26.50
11454;DHT22;5783;55.174;61.310;2023-01-29T18:18:26;17.50;26.60
11454;DHT22;5783;55.174;61.310;2023-01-29T18:20:55;17.40;26.70
11454;DHT22;5783;55.174;61.310;2023-01-29T18:23:24;17.40;26.70
11454;DHT22;5783;55.174;61.310;2023-01-29T18:25:56;17.40;26.70
11454;DHT22;5783;55.174;61.310;2023-01-29T18:28:25;17.40;26.80
11454;DHT22;5783;55.174;61.310;2023-01-29T18:30:55;17.40;26.80
11454;DHT22;5783;55.174;61.310;2023-01-29T18:33:24;17.40;26.90
11454;DHT22;5783;55.174;61.310;2023-01-29T18:35:53;17.40;26.80
11454;DHT22;5783;55.174;61.310;2023-01-29T18:38:23;17.50;26.80
11454;DHT22;5783;55.174;61.310;2023-01-29T18:40:53;17.40;26.80
11454;DHT22;5783;55.174;61.310;2023-01-29T18:43:23;17.50;26.80
11454;DHT22;5783;55.174;61.310;2023-01-29T18:48:43;17.40;26.80
11454;DHT22;5783;55.174;61.310;2023-01-29T18:51:12;17.40;26.80
11454;DHT22;5783;55.174;61.310;2023-01-29T18:53:41;17.50;26.90
11454;DHT22;5783;55.174;61.310;2023-01-29T18:56:10;17.50;26.60
11454;DHT22;5783;55.174;61.310;2023-01-29T18:58:39;17.50;26.70
11454;DHT22;5783;55.174;61.310;2023-01-29T19:01:10;17.50;26.70
11454;DHT22;5783;55.174;61.310;2023-01-29T19:03:41;17.50;26.80
11454;DHT22;5783;55.174;61.310;2023-01-29T19:06:11;17.60;26.60
11454;DHT22;5783;55.174;61.310;2023-01-29T19:08:40;17.60;26.50
11454;DHT22;5783;55.174;61.310;2023-01-29T19:11:09;17.70;26.30
11454;DHT22;5783;55.174;61.310;2023-01-29T19:13:38;17.60;26.30
11454;DHT22;5783;55.174;61.310;2023-01-29T19:16:09;17.60;26.30
11454;DHT22;5783;55.174;61.310;2023-01-29T19:18:39;17.70;26.20
11454;DHT22;5783;55.174;61.310;2023-01-29T19:21:12;17.70;26.40
11454;DHT22;5783;55.174;61.310;2023-01-29T19:23:42;17.70;26.30
11454;DHT22;5783;55.174;61.310;2023-01-29T19:26:12;17.70;26.40
11454;DHT22;5783;55.174;61.310;2023-01-29T19:28:41;17.60;26.40
11454;DHT22;5783;55.174;61.310;2023-01-29T19:31:10;17.60;26.50
11454;DHT22;5783;55.174;61.310;2023-01-29T19:33:39;17.60;26.40
11454;DHT22;5783;55.174;61.310;2023-01-29T19:36:08;17.70;26.40
11454;DHT22;5783;55.174;61.310;2023-01-29T19:38:39;17.70;26.40
11454;DHT22;5783;55.174;61.310;2023-01-29T19:41:09;17.70;26.50
11454;DHT22;5783;55.174;61.310;2023-01-29T19:43:38;17.70;26.40
11454;DHT22;5783;55.174;61.310;2023-01-29T19:46:09;17.70;26.40
11454;DHT22;5783;55.174;61.310;2023-01-29T19:48:38;17.70;26.40
11454;DHT22;5783;55.174;61.310;2023-01-29T19:51:10;17.70;26.40
11454;DHT22;5783;55.174;61.310;2023-01-29T19:53:41;17.70;26.40
11454;DHT22;5783;55.174;61.310;2023-01-29T19:56:12;17.70;26.10
11454;DHT22;5783;55.174;61.310;2023-01-29T19:58:42;17.70;26.60
11454;DHT22;5783;55.174;61.310;2023-01-29T20:01:15;17.70;26.60
11454;DHT22;5783;55.174;61.310;2023-01-29T20:03:47;17.70;26.50
11454;DHT22;5783;55.174;61.310;2023-01-29T20:06:20;17.70;26.60
11454;DHT22;5783;55.174;61.310;2023-01-29T20:08:49;17.70;26.40
11454;DHT22;5783;55.174;61.310;2023-01-29T20:11:21;17.70;26.50
11454;DHT22;5783;55.174;61.310;2023-01-29T20:13:52;17.80;26.50
11454;DHT22;5783;55.174;61.310;2023-01-29T20:16:21;17.80;26.40
11454;DHT22;5783;55.174;61.310;2023-01-29T20:18:51;17.70;26.40
11454;DHT22;5783;55.174;61.310;2023-01-29T20:21:20;17.80;26.40
11454;DHT22;5783;55.174;61.310;2023-01-29T20:23:50;17.80;26.60
11454;DHT22;5783;55.174;61.310;2023-01-29T20:26:20;17.70;26.30
11454;DHT22;5783;55.174;61.310;2023-01-29T20:28:51;17.70;26.30
11454;DHT22;5783;55.174;61.310;2023-01-29T20:31:20;17.70;26.30
11454;DHT22;5783;55.174;61.310;2023-01-29T20:33:49;17.70;26.30
11454;DHT22;5783;55.174;61.310;2023-01-29T20:36:18;17.70;26.30
11454;DHT22;5783;55.174;61.310;2023-01-29T20:38:48;17.80;26.30
11454;DHT22;5783;55.174;61.310;2023-01-29T20:41:18;17.70;26.30
11454;DHT22;5783;55.174;61.310;2023-01-29T20:43:47;17.80;26.20
11454;DHT22;5783;55.174;61.310;2023-01-29T20:46:17;17.80;26.20